EST,Max TemperatureF,Mean TemperatureF,Min TemperatureF,Max Dew PointF,MeanDew PointF,Min DewpointF,Max Humidity, Mean Humidity, Min Humidity, Max Sea Level PressureIn, Mean Sea Level PressureIn, Min Sea Level PressureIn, Max VisibilityMiles, Mean VisibilityMiles, Min VisibilityMiles, Max Wind SpeedMPH, Mean Wind SpeedMPH, Max Gust SpeedMPH,PrecipitationIn, CloudCover, Events, WindDirDegrees
2012-12-1,60,50,39,48,42,39,100,81,60,30.27,30.19,30.06,10,5,0,18,7,26,0.00,6,Fog,151
2012-12-2,57,55,53,54,52,46,100,89,67,30.12,30.01,29.97,10,6,2,16,12,25,0.19,8,Rain,217
2012-12-3,64,58,51,59,56,50,100,91,78,30.14,30.07,29.98,10,4,0,20,7,30,0.00,6,Fog,170
2012-12-4,63,52,41,55,48,35,94,83,70,30.15,30.02,29.96,10,9,2,18,14,26,0.14,6,Rain,247
2012-12-5,39,33,27,33,23,19,83,66,48,30.43,30.35,30.17,10,10,10,17,8,24,0.00,0,,353
2012-12-6,39,32,24,30,26,19,85,77,65,30.37,30.19,30.00,10,10,10,9,3,,0.00,0,,141
2012-12-7,46,41,36,43,40,31,96,89,79,30.00,29.94,29.89,10,4,2,6,3,,0.11,8,Rain,130
2012-12-8,44,40,37,43,39,32,100,90,79,30.17,29.94,29.80,10,5,0,9,5,,0.07,8,Fog-Rain,15
2012-12-9,43,40,37,43,37,32,100,90,76,30.17,29.89,29.64,10,4,1,15,8,22,0.30,8,Rain,77
2012-12-10,45,40,34,44,36,25,100,84,67,29.90,29.70,29.63,10,8,2,17,9,22,0.03,8,Rain,275
2012-12-11,37,32,27,28,24,21,82,73,59,30.23,30.06,29.90,10,10,2,17,7,23,0.00,6,Snow,247
2012-12-12,42,34,25,27,24,21,85,74,53,30.42,30.36,30.23,10,10,7,12,8,,0.00,0,,204
2012-12-13,44,34,24,28,24,20,85,72,47,30.43,30.35,30.22,10,10,9,14,7,,0.00,0,,193
2012-12-14,46,37,28,31,28,24,85,73,54,30.29,30.24,30.19,10,10,8,9,6,,0.00,0,,215
2012-12-15,48,40,32,42,33,28,88,76,59,30.18,29.98,29.73,10,10,8,15,6,,0.05,5,Rain,127
2012-12-16,55,52,46,50,46,40,89,80,72,29.71,29.67,29.62,10,10,10,17,12,25,0.00,8,,219
2012-12-17,45,43,41,39,35,34,80,76,71,29.76,29.69,29.62,10,10,8,12,6,,0.00,8,,275
2012-12-18,41,38,35,36,33,29,93,83,62,29.81,29.74,29.64,10,8,6,14,8,,0.08,6,Rain,262
2012-12-19,43,36,30,36,34,31,100,88,68,30.14,29.95,29.74,10,5,0,8,1,,0.00,7,Fog,306
2012-12-20,50,42,33,46,37,28,93,84,73,30.05,29.50,29.21,10,8,2,26,15,39,0.67,8,Rain-Snow,138
2012-12-21,35,34,33,34,28,22,93,79,59,29.91,29.44,29.20,10,8,2,32,21,40,0.01,8,Snow,278
2012-12-22,37,31,24,25,22,20,85,67,53,30.13,30.07,29.94,10,10,9,22,16,31,0.00,4,,278
2012-12-23,37,29,21,25,21,17,89,74,51,30.06,29.99,29.95,10,10,8,8,5,,0.00,0,,289
2012-12-24,36,30,24,31,27,20,93,83,67,30.03,29.90,29.78,10,8,2,14,6,22,0.00,5,Rain-Snow,54
2012-12-25,34,30,26,27,25,22,86,78,67,30.30,30.20,30.03,10,10,10,14,7,21,0.00,6,,16
2012-12-26,33,30,26,29,25,23,93,84,66,30.21,29.88,29.77,10,4,0,28,17,40,0.11,8,Fog-Snow,25
2012-12-27,30,24,17,25,22,15,92,82,72,30.19,30.05,29.86,10,9,5,18,11,,0.00,5,Snow,303
2012-12-28,30,21,12,25,17,10,93,87,79,30.22,30.12,29.94,10,4,0,7,2,,0.00,4,Fog-Snow,120
2012-12-29,30,28,21,28,26,19,100,90,82,30.11,29.87,29.79,10,3,1,12,6,,0.14,8,Snow,8
2012-12-30,28,23,18,25,19,12,93,84,77,30.38,30.27,30.12,10,7,2,18,10,25,0.01,6,Snow,237
2012-12-31,34,28,21,30,26,16,93,83,67,30.25,30.05,29.98,10,6,1,21,14,29,0.00,6,Snow,231